createdAt,value
2019-04-23T00:01:46.691Z,55.30
2019-04-23T00:04:00.947Z,55.30
2019-04-23T00:06:34.572Z,55.30
2019-04-23T00:09:07.309Z,55.30
2019-04-23T00:11:35.645Z,55.40
2019-04-23T00:14:05.679Z,55.60
2019-04-23T00:16:56.528Z,55.70
2019-04-23T00:19:03.179Z,55.70
2019-04-23T00:21:42.685Z,55.80
2019-04-23T00:24:20.479Z,56.20
2019-04-23T00:26:47.489Z,56.30
2019-04-23T00:29:19.006Z,56.50
2019-04-23T00:31:46.397Z,56.90
2019-04-23T00:34:16.198Z,57.00
2019-04-23T00:36:55.317Z,57.20
2019-04-23T00:39:16.717Z,57.20
2019-04-23T00:41:44.183Z,57.50
2019-04-23T00:44:15.148Z,57.80
2019-04-23T00:46:47.571Z,58.10
2019-04-23T00:49:21.302Z,58.40
2019-04-23T00:54:17.757Z,58.80
2019-04-23T00:59:12.514Z,58.70
2019-04-23T01:02:01.011Z,58.70
2019-04-23T01:04:20.463Z,58.80
2019-04-23T01:06:54.868Z,59.00
2019-04-23T01:09:24.084Z,59.20
2019-04-23T01:11:50.110Z,59.30
2019-04-23T01:14:23.037Z,59.60
2019-04-23T01:16:52.999Z,60.50
2019-04-23T01:19:31.373Z,59.70
2019-04-23T01:21:34.812Z,59.80
2019-04-23T01:24:19.318Z,59.80
2019-04-23T01:27:30.421Z,59.90
2019-04-23T01:29:42.548Z,59.80
2019-04-23T01:32:17.540Z,60.00
2019-04-23T01:34:50.186Z,59.90
2019-04-23T01:37:23.444Z,60.10
2019-04-23T01:39:44.130Z,60.30
2019-04-23T01:42:24.046Z,60.50
2019-04-23T01:44:54.071Z,60.50
2019-04-23T01:47:19.985Z,60.90
2019-04-23T01:49:53.943Z,61.20
2019-04-23T01:52:24.944Z,61.30
2019-04-23T01:54:52.887Z,61.40
2019-04-23T01:57:23.343Z,61.40
2019-04-23T01:59:57.976Z,61.40
2019-04-23T02:02:20.666Z,61.50
2019-04-23T02:04:59.179Z,62.00
2019-04-23T02:07:24.555Z,62.10
2019-04-23T02:10:02.330Z,62.10
2019-04-23T02:12:25.840Z,62.60
2019-04-23T02:14:57.270Z,62.90
2019-04-23T02:17:25.430Z,63.50
2019-04-23T02:19:51.345Z,63.70
2019-04-23T02:22:38.483Z,64.00
2019-04-23T02:25:25.099Z,64.50
2019-04-23T02:27:52.176Z,64.70
2019-04-23T02:30:46.663Z,64.80
2019-04-23T02:32:59.709Z,64.70
2019-04-23T02:35:32.851Z,64.80
2019-04-23T02:38:07.495Z,64.90
2019-04-23T02:40:30.556Z,65.30
2019-04-23T02:43:03.547Z,65.30
2019-04-23T02:48:01.819Z,65.90
2019-04-23T02:52:57.576Z,66.20
2019-04-23T02:55:27.166Z,66.60
2019-04-23T02:58:02.095Z,66.60
2019-04-23T03:00:28.759Z,66.60
2019-04-23T03:03:01.700Z,66.70
2019-04-23T03:05:32.934Z,67.30
2019-04-23T03:08:08.343Z,66.90
2019-04-23T03:13:07.665Z,67.40
2019-04-23T03:26:08.964Z,68.20
2019-04-23T03:38:43.395Z,68.30
2019-04-23T03:43:37.498Z,68.20
2019-04-23T03:51:05.608Z,68.50
2019-04-23T03:56:17.957Z,68.90
2019-04-23T04:01:19.820Z,68.30
2019-04-23T04:04:06.552Z,67.70
2019-04-23T04:06:13.469Z,67.80
2019-04-23T04:08:36.824Z,67.80
2019-04-23T04:11:16.661Z,68.00
2019-04-23T04:13:55.369Z,68.00
2019-04-23T04:18:44.171Z,67.30
2019-04-23T04:21:16.185Z,66.70
2019-04-23T04:24:01.663Z,66.50
2019-04-23T04:26:14.422Z,66.20
2019-04-23T04:31:16.262Z,65.90
2019-04-23T04:41:20.751Z,63.80
2019-04-23T04:48:49.341Z,61.60
2019-04-23T04:51:37.710Z,61.00
2019-04-23T04:54:06.365Z,60.80
2019-04-23T04:56:20.890Z,60.40
2019-04-23T04:59:03.675Z,59.40
2019-04-23T05:01:28.197Z,59.20
2019-04-23T05:03:36.275Z,59.20
2019-04-23T05:08:54.468Z,59.10
2019-04-23T05:16:19.636Z,58.10
2019-04-23T05:18:52.128Z,57.60
2019-04-23T05:21:20.775Z,57.30
2019-04-23T05:26:48.073Z,57.20
2019-04-23T05:33:58.166Z,56.00
2019-04-23T05:36:41.553Z,55.70
2019-04-23T05:39:00.877Z,55.40
2019-04-23T05:41:45.605Z,55.20
2019-04-23T05:44:15.966Z,54.90
2019-04-23T05:46:44.958Z,54.30
2019-04-23T05:49:17.312Z,53.50
2019-04-23T05:51:55.006Z,52.70
2019-04-23T05:54:20.787Z,52.30
2019-04-23T05:59:16.324Z,51.70
2019-04-23T06:04:36.996Z,50.40
2019-04-23T06:09:27.972Z,48.80
2019-04-23T06:11:56.995Z,48.90
2019-04-23T06:14:26.400Z,48.50
2019-04-23T06:16:59.024Z,48.20
2019-04-23T06:19:21.052Z,48.20
2019-04-23T06:22:18.455Z,48.20
2019-04-23T06:24:26.107Z,47.70
2019-04-23T06:27:00.744Z,48.00
2019-04-23T06:31:55.306Z,47.10
2019-04-23T06:34:31.423Z,47.20
2019-04-23T06:36:57.231Z,46.30
2019-04-23T06:39:28.597Z,45.10
2019-04-23T06:42:02.002Z,44.60
2019-04-23T06:44:32.300Z,44.80
2019-04-23T06:47:03.553Z,44.30
2019-04-23T06:49:37.700Z,43.90
2019-04-23T06:52:15.129Z,42.60
2019-04-23T07:02:27.194Z,40.20
2019-04-23T07:04:43.341Z,39.20
2019-04-23T07:07:31.085Z,38.20
2019-04-23T07:09:35.233Z,37.60
2019-04-23T07:12:07.666Z,36.90
2019-04-23T07:14:44.558Z,36.30
2019-04-23T07:17:18.488Z,36.40
2019-04-23T07:22:12.916Z,35.30
2019-04-23T07:24:41.997Z,34.90
2019-04-23T07:27:11.972Z,34.90
2019-04-23T07:29:41.418Z,34.20
2019-04-23T07:32:05.321Z,34.30
2019-04-23T07:34:41.926Z,33.90
2019-04-23T07:37:22.970Z,33.90
2019-04-23T07:39:56.120Z,33.70
2019-04-23T07:42:20.586Z,33.50
2019-04-23T07:45:01.836Z,33.40
2019-04-23T07:48:00.263Z,33.50
2019-04-23T07:52:59.802Z,32.80
2019-04-23T07:55:32.252Z,32.20
2019-04-23T07:58:04.645Z,31.30
2019-04-23T08:00:29.836Z,31.30
2019-04-23T08:03:01.225Z,31.00
2019-04-23T08:05:22.629Z,31.90
2019-04-23T08:07:57.437Z,30.90
2019-04-23T08:10:24.667Z,30.40
2019-04-23T08:12:50.728Z,30.30
2019-04-23T08:15:22.990Z,29.80
2019-04-23T08:17:56.233Z,29.90
2019-04-23T08:20:24.580Z,29.30
2019-04-23T08:23:00.398Z,29.10
2019-04-23T08:25:55.869Z,28.40
2019-04-23T08:28:25.918Z,28.90
2019-04-23T08:30:50.249Z,28.70
2019-04-23T08:33:21.250Z,28.50
2019-04-23T08:35:50.987Z,28.30
2019-04-23T08:40:59.161Z,27.40
2019-04-23T08:43:36.435Z,27.00
2019-04-23T08:45:58.087Z,27.10
2019-04-23T08:48:34.489Z,27.40
2019-04-23T08:51:19.556Z,26.80
2019-04-23T08:56:03.642Z,26.20
2019-04-23T08:58:34.004Z,26.20
2019-04-23T09:01:07.757Z,25.20
2019-04-23T09:03:34.409Z,25.30
2019-04-23T09:06:05.335Z,25.80
2019-04-23T09:11:16.646Z,25.10
2019-04-23T09:16:22.429Z,22.00
2019-04-23T09:18:33.122Z,18.40
2019-04-23T09:21:07.352Z,17.50
2019-04-23T09:23:42.137Z,16.20
2019-04-23T09:26:22.129Z,15.90
2019-04-23T09:28:47.352Z,15.30
2019-04-23T09:31:18.859Z,14.10
2019-04-23T09:34:04.901Z,13.40
2019-04-23T09:36:37.832Z,13.30
2019-04-23T09:39:12.499Z,13.00
2019-04-23T09:41:37.946Z,11.70
2019-04-23T09:44:41.575Z,11.40
2019-04-23T09:52:07.244Z,9.90
2019-04-23T09:54:33.901Z,10.10
2019-04-23T09:56:57.178Z,10.10
2019-04-23T10:01:54.343Z,9.90
2019-04-23T10:04:20.892Z,9.60
2019-04-23T10:06:38.939Z,9.20
2019-04-23T10:09:10.615Z,9.00
2019-04-23T10:11:38.877Z,9.00
2019-04-23T10:14:08.306Z,9.60
2019-04-23T10:16:37.118Z,9.60
2019-04-23T10:19:06.124Z,9.20
2019-04-23T10:21:35.342Z,9.30
2019-04-23T10:24:05.402Z,9.50
2019-04-23T10:26:34.435Z,9.70
2019-04-23T10:29:05.537Z,9.50
2019-04-23T10:31:35.612Z,9.20
2019-04-23T10:34:06.365Z,9.60
2019-04-23T10:36:37.894Z,9.10
2019-04-23T10:39:15.595Z,9.20
2019-04-23T10:41:42.580Z,9.30
2019-04-23T10:44:11.140Z,9.00
2019-04-23T10:47:15.158Z,8.80
2019-04-23T10:49:53.200Z,8.90
2019-04-23T10:54:51.179Z,9.60
2019-04-23T10:57:31.628Z,9.80
2019-04-23T10:59:44.706Z,9.20
2019-04-23T11:15:09.255Z,7.70
2019-04-23T11:17:36.324Z,7.60
2019-04-23T11:25:04.199Z,7.30
2019-04-23T11:27:38.724Z,7.70
2019-04-23T11:37:56.474Z,6.90
2019-04-23T11:40:03.909Z,6.70
2019-04-23T11:42:50.180Z,6.60
2019-04-23T11:45:06.719Z,6.80
2019-04-23T11:48:07.705Z,6.50
2019-04-23T11:50:09.625Z,6.50
2019-04-23T11:52:48.839Z,6.40
2019-04-23T11:55:22.398Z,6.00
2019-04-23T12:00:05.525Z,6.80
2019-04-23T12:02:50.084Z,7.00
2019-04-23T12:05:26.568Z,6.70
2019-04-23T12:08:03.840Z,6.60
2019-04-23T12:11:00.282Z,6.70
2019-04-23T12:15:53.535Z,6.80
2019-04-23T12:18:29.972Z,6.50
2019-04-23T12:21:06.653Z,6.30
2019-04-23T12:26:11.659Z,5.50
2019-04-23T12:28:44.135Z,5.80
2019-04-23T12:31:10.008Z,5.90
2019-04-23T12:33:45.202Z,5.50
2019-04-23T12:36:44.100Z,5.50
2019-04-23T12:39:05.027Z,5.60
2019-04-23T12:41:29.848Z,6.30
2019-04-23T12:44:03.314Z,6.60
2019-04-23T12:46:29.868Z,6.60
2019-04-23T12:49:10.733Z,5.90
2019-04-23T12:51:43.371Z,5.80
2019-04-23T12:53:57.767Z,5.90
2019-04-23T12:56:40.398Z,5.90
2019-04-23T12:59:01.756Z,5.50
2019-04-23T13:01:35.798Z,5.30
2019-04-23T13:03:59.721Z,5.30
2019-04-23T13:06:28.195Z,5.40
2019-04-23T13:09:11.753Z,5.10
2019-04-23T13:11:34.836Z,5.30
2019-04-23T13:14:10.640Z,5.90
2019-04-23T13:16:46.785Z,5.70
2019-04-23T13:19:20.516Z,5.60
2019-04-23T13:21:51.301Z,5.70
2019-04-23T13:24:27.069Z,5.40
2019-04-23T13:26:58.951Z,5.30
2019-04-23T13:29:28.988Z,5.60
2019-04-23T13:31:49.355Z,5.60
2019-04-23T13:34:37.605Z,5.30
2019-04-23T13:37:00.503Z,5.60
2019-04-23T13:39:24.608Z,5.70
2019-04-23T13:41:53.977Z,5.70
2019-04-23T13:44:26.130Z,5.30
2019-04-23T13:47:00.750Z,5.50
2019-04-23T13:49:37.654Z,6.00
2019-04-23T13:52:06.203Z,5.90
2019-04-23T13:54:52.202Z,6.20
2019-04-23T13:59:40.173Z,6.30
2019-04-23T14:02:08.999Z,6.40
2019-04-23T14:04:48.432Z,6.50
2019-04-23T14:07:10.297Z,6.40
2019-04-23T14:09:45.824Z,6.00
2019-04-23T14:12:09.045Z,6.10
2019-04-23T14:17:27.317Z,5.90
2019-04-23T14:19:38.283Z,6.00
2019-04-23T14:22:34.086Z,5.90
2019-04-23T14:24:53.157Z,6.00
2019-04-23T14:27:23.454Z,6.30
2019-04-23T14:29:48.228Z,6.40
2019-04-23T14:32:17.159Z,6.30
2019-04-23T14:34:54.328Z,7.10
2019-04-23T14:37:25.130Z,7.10
2019-04-23T14:39:48.252Z,7.00
2019-04-23T14:42:30.828Z,6.90
2019-04-23T14:44:52.415Z,6.80
2019-04-23T14:47:24.257Z,7.00
2019-04-23T14:50:19.057Z,7.10
2019-04-23T15:00:03.089Z,7.40
2019-04-23T15:02:40.369Z,7.60
2019-04-23T15:05:06.501Z,7.80
2019-04-23T15:07:35.456Z,8.00
2019-04-23T15:10:12.185Z,7.90
2019-04-23T15:15:21.258Z,7.60
2019-04-23T15:17:34.666Z,7.50
2019-04-23T15:20:03.274Z,7.50
2019-04-23T15:22:47.965Z,7.80
2019-04-23T15:25:19.327Z,8.30
2019-04-23T15:29:57.756Z,9.10
2019-04-23T15:32:53.675Z,9.70
2019-04-23T15:38:16.132Z,9.90
2019-04-23T15:42:40.403Z,10.80
2019-04-23T15:45:19.068Z,11.30
2019-04-23T15:50:19.826Z,12.20
2019-04-23T15:52:56.421Z,12.60
2019-04-23T15:55:15.148Z,12.80
2019-04-23T15:58:01.017Z,13.20
2019-04-23T16:00:14.499Z,12.90
2019-04-23T16:02:17.426Z,13.10
2019-04-23T16:04:46.999Z,12.90
2019-04-23T16:07:31.747Z,12.90
2019-04-23T16:10:14.474Z,12.60
2019-04-23T16:12:51.894Z,12.70
2019-04-23T16:15:13.285Z,13.00
2019-04-23T16:18:01.644Z,13.20
2019-04-23T16:20:31.883Z,13.30
2019-04-23T16:22:52.823Z,13.40
2019-04-23T16:25:36.442Z,14.10
2019-04-23T16:27:56.816Z,14.60
2019-04-23T16:30:25.487Z,14.50
2019-04-23T16:33:08.388Z,14.50
2019-04-23T16:38:23.301Z,15.10
2019-04-23T16:43:12.709Z,14.90
2019-04-23T16:45:45.510Z,14.80
2019-04-23T16:48:26.193Z,14.70
2019-04-23T16:51:00.748Z,14.70
2019-04-23T16:55:47.615Z,15.20
2019-04-23T17:05:59.498Z,16.40
2019-04-23T17:11:08.941Z,17.00
2019-04-23T17:13:20.174Z,18.00
2019-04-23T17:16:01.774Z,17.70
2019-04-23T17:18:25.949Z,18.20
2019-04-23T17:20:53.002Z,18.50
2019-04-23T17:25:59.256Z,18.40
2019-04-23T17:28:24.797Z,18.80
2019-04-23T17:39:04.290Z,20.00
2019-04-23T17:42:01.401Z,20.30
2019-04-23T17:44:24.163Z,20.70
2019-04-23T17:46:50.905Z,21.40
2019-04-23T17:49:30.065Z,21.20
2019-04-23T17:52:01.052Z,21.30
2019-04-23T17:54:25.119Z,21.60
2019-04-23T17:57:01.850Z,21.90
2019-04-23T17:59:28.110Z,22.30
2019-04-23T18:02:18.417Z,22.30
2019-04-23T18:04:29.647Z,22.70
2019-04-23T18:06:56.001Z,22.80
2019-04-23T18:09:32.781Z,22.80
2019-04-23T18:12:09.828Z,23.50
2019-04-23T18:14:17.825Z,23.80
2019-04-23T18:16:56.931Z,23.80
2019-04-23T18:19:24.731Z,24.20
2019-04-23T18:22:17.442Z,24.10
2019-04-23T18:25:03.890Z,24.30
2019-04-23T18:27:33.103Z,24.40
2019-04-23T18:30:10.626Z,24.80
2019-04-23T18:32:43.181Z,25.00
2019-04-23T18:35:25.901Z,25.10
2019-04-23T18:37:44.336Z,25.40
2019-04-23T18:40:03.635Z,25.30
2019-04-23T18:42:43.710Z,25.60
2019-04-23T18:45:20.430Z,25.80
2019-04-23T18:47:45.731Z,26.00
2019-04-23T18:50:26.935Z,26.00
2019-04-23T18:55:29.824Z,26.60
2019-04-23T18:57:48.835Z,26.20
2019-04-23T19:00:27.151Z,26.30
2019-04-23T19:03:01.151Z,26.60
2019-04-23T19:05:52.607Z,26.60
2019-04-23T19:08:52.123Z,26.70
2019-04-23T19:11:07.262Z,27.50
2019-04-23T19:13:24.821Z,26.80
2019-04-23T19:16:01.669Z,27.10
2019-04-23T19:18:26.786Z,27.30
2019-04-23T19:21:00.956Z,27.40
2019-04-23T19:23:32.278Z,27.40
2019-04-23T19:25:51.718Z,27.60
2019-04-23T19:33:53.600Z,27.80
2019-04-23T19:38:35.244Z,28.30
2019-04-23T19:41:12.784Z,28.30
2019-04-23T19:43:55.654Z,28.20
2019-04-23T19:46:34.685Z,28.10
2019-04-23T19:48:58.025Z,28.20
2019-04-23T19:51:11.343Z,28.60
2019-04-23T19:53:55.243Z,28.30
2019-04-23T19:56:16.664Z,28.30
2019-04-23T19:58:48.422Z,28.40
2019-04-23T20:01:16.733Z,28.70
2019-04-23T20:03:50.038Z,29.00
2019-04-23T20:06:25.755Z,29.00
2019-04-23T20:11:21.817Z,29.50
2019-04-23T20:13:55.621Z,29.60
2019-04-23T20:16:25.982Z,29.70
2019-04-23T20:21:12.826Z,29.70
2019-04-23T20:29:15.448Z,30.30
2019-04-23T20:44:37.436Z,31.30
2019-04-23T20:47:13.314Z,31.30
2019-04-23T20:49:42.264Z,31.40
2019-04-23T20:57:22.831Z,31.90
2019-04-23T21:00:01.211Z,32.10
2019-04-23T21:02:52.460Z,32.00
2019-04-23T21:05:06.556Z,32.30
2019-04-23T21:07:41.902Z,32.50
2019-04-23T21:10:22.020Z,32.20
2019-04-23T21:12:50.207Z,32.40
2019-04-23T21:15:10.470Z,32.80
2019-04-23T21:17:43.857Z,33.10
2019-04-23T21:20:17.796Z,33.10
2019-04-23T21:22:32.105Z,33.10
2019-04-23T21:25:06.170Z,33.50
2019-04-23T21:27:46.746Z,33.30
2019-04-23T21:30:03.556Z,33.10
2019-04-23T21:37:58.900Z,32.90
2019-04-23T21:40:53.809Z,33.20
2019-04-23T21:45:40.767Z,33.70
2019-04-23T21:48:09.922Z,33.80
2019-04-23T21:50:43.868Z,33.90
2019-04-23T21:53:06.848Z,34.20
2019-04-23T21:55:48.424Z,34.40
2019-04-23T21:58:17.270Z,34.50
2019-04-23T22:00:53.441Z,34.50
2019-04-23T22:03:15.389Z,34.70
2019-04-23T22:05:49.665Z,35.00
2019-04-23T22:08:10.760Z,35.10
2019-04-23T22:13:24.613Z,35.20
2019-04-23T22:15:54.754Z,35.30
2019-04-23T22:18:18.252Z,35.70
2019-04-23T22:20:51.429Z,35.30
2019-04-23T22:23:18.348Z,35.50
2019-04-23T22:25:56.483Z,35.80
2019-04-23T22:28:18.118Z,36.00
2019-04-23T22:33:18.093Z,36.10
2019-04-23T22:35:57.492Z,36.00
2019-04-23T22:38:22.685Z,36.20
2019-04-23T22:40:49.499Z,36.40
2019-04-23T22:43:22.204Z,36.50
2019-04-23T22:48:23.696Z,36.90
2019-04-23T22:51:11.121Z,37.10
2019-04-23T22:53:14.733Z,37.30
2019-04-23T22:55:58.921Z,37.30
2019-04-23T22:58:20.013Z,37.40
2019-04-23T23:01:23.060Z,38.20
2019-04-23T23:03:51.315Z,37.90
2019-04-23T23:06:23.104Z,38.10
2019-04-23T23:08:59.957Z,38.30
2019-04-23T23:11:16.995Z,38.40
2019-04-23T23:14:09.682Z,38.60
2019-04-23T23:16:21.556Z,38.80
2019-04-23T23:18:57.165Z,38.80
2019-04-23T23:21:22.648Z,38.60
2019-04-23T23:23:54.295Z,38.60
2019-04-23T23:26:21.936Z,38.80
2019-04-23T23:28:55.361Z,39.00
2019-04-23T23:31:16.280Z,38.80
2019-04-23T23:33:54.221Z,39.60
2019-04-23T23:41:28.709Z,39.30
2019-04-23T23:44:07.635Z,39.50
2019-04-23T23:46:37.416Z,39.40
2019-04-23T23:48:59.147Z,39.30
2019-04-23T23:51:36.568Z,39.40
2019-04-23T23:56:19.405Z,39.80
2019-04-23T23:59:04.304Z,40.10
